sensor_id;sensor_type;location;lat;lon;timestamp;P1;durP1;ratioP1;P2;durP2;ratioP2
53056;SDS011;38940;50.096;4.012;2023-07-16T00:01:31;5.78;;;1.42;;
53056;SDS011;38940;50.096;4.012;2023-07-16T00:03:57;4.25;;;1.30;;
53056;SDS011;38940;50.096;4.012;2023-07-16T00:06:23;5.32;;;1.13;;
53056;SDS011;38940;50.096;4.012;2023-07-16T00:08:49;5.13;;;1.10;;
53056;SDS011;38940;50.096;4.012;2023-07-16T00:11:15;4.47;;;1.25;;
53056;SDS011;38940;50.096;4.012;2023-07-16T00:13:41;3.45;;;1.40;;
53056;SDS011;38940;50.096;4.012;2023-07-16T00:16:12;4.57;;;1.40;;
53056;SDS011;38940;50.096;4.012;2023-07-16T00:18:38;4.90;;;1.57;;
53056;SDS011;38940;50.096;4.012;2023-07-16T00:21:04;6.50;;;1.20;;
53056;SDS011;38940;50.096;4.012;2023-07-16T00:23:30;5.03;;;1.30;;
53056;SDS011;38940;50.096;4.012;2023-07-16T00:25:56;7.25;;;1.52;;
53056;SDS011;38940;50.096;4.012;2023-07-16T00:28:22;7.83;;;1.50;;
53056;SDS011;38940;50.096;4.012;2023-07-16T00:30:48;8.43;;;1.70;;
53056;SDS011;38940;50.096;4.012;2023-07-16T00:33:14;3.70;;;1.50;;
53056;SDS011;38940;50.096;4.012;2023-07-16T00:35:46;4.53;;;1.40;;
53056;SDS011;38940;50.096;4.012;2023-07-16T00:38:12;6.97;;;1.45;;
53056;SDS011;38940;50.096;4.012;2023-07-16T00:40:38;7.73;;;1.20;;
53056;SDS011;38940;50.096;4.012;2023-07-16T00:43:04;5.97;;;1.40;;
53056;SDS011;38940;50.096;4.012;2023-07-16T00:45:30;6.70;;;1.50;;
53056;SDS011;38940;50.096;4.012;2023-07-16T00:47:56;8.37;;;1.60;;
53056;SDS011;38940;50.096;4.012;2023-07-16T00:50:23;8.25;;;1.63;;
53056;SDS011;38940;50.096;4.012;2023-07-16T00:52:49;5.00;;;1.50;;
53056;SDS011;38940;50.096;4.012;2023-07-16T00:55:15;7.97;;;1.73;;
53056;SDS011;38940;50.096;4.012;2023-07-16T00:57:41;5.60;;;1.50;;
53056;SDS011;38940;50.096;4.012;2023-07-16T01:00:07;5.90;;;1.60;;
53056;SDS011;38940;50.096;4.012;2023-07-16T01:02:34;5.78;;;1.52;;
53056;SDS011;38940;50.096;4.012;2023-07-16T01:05:00;7.40;;;1.60;;
53056;SDS011;38940;50.096;4.012;2023-07-16T01:07:27;5.07;;;1.70;;
53056;SDS011;38940;50.096;4.012;2023-07-16T01:09:54;9.80;;;1.70;;
53056;SDS011;38940;50.096;4.012;2023-07-16T01:12:21;8.07;;;1.60;;
53056;SDS011;38940;50.096;4.012;2023-07-16T01:14:48;5.88;;;1.73;;
53056;SDS011;38940;50.096;4.012;2023-07-16T01:17:15;7.43;;;1.50;;
53056;SDS011;38940;50.096;4.012;2023-07-16T01:19:41;3.53;;;1.63;;
53056;SDS011;38940;50.096;4.012;2023-07-16T01:27:13;7.60;;;1.80;;
53056;SDS011;38940;50.096;4.012;2023-07-16T01:29:44;9.20;;;1.77;;
53056;SDS011;38940;50.096;4.012;2023-07-16T01:32:12;5.65;;;1.45;;
53056;SDS011;38940;50.096;4.012;2023-07-16T01:34:39;5.30;;;1.45;;
53056;SDS011;38940;50.096;4.012;2023-07-16T01:37:05;6.30;;;1.75;;
53056;SDS011;38940;50.096;4.012;2023-07-16T01:39:31;7.90;;;1.70;;
53056;SDS011;38940;50.096;4.012;2023-07-16T01:42:01;4.82;;;1.50;;
53056;SDS011;38940;50.096;4.012;2023-07-16T01:44:27;6.53;;;1.40;;
53056;SDS011;38940;50.096;4.012;2023-07-16T01:47:03;7.40;;;1.50;;
53056;SDS011;38940;50.096;4.012;2023-07-16T01:49:30;8.95;;;1.50;;
53056;SDS011;38940;50.096;4.012;2023-07-16T01:51:56;6.67;;;1.57;;
53056;SDS011;38940;50.096;4.012;2023-07-16T01:54:22;8.20;;;1.50;;
53056;SDS011;38940;50.096;4.012;2023-07-16T01:56:48;5.45;;;1.55;;
53056;SDS011;38940;50.096;4.012;2023-07-16T01:59:14;6.13;;;1.60;;
53056;SDS011;38940;50.096;4.012;2023-07-16T02:01:40;6.43;;;1.65;;
53056;SDS011;38940;50.096;4.012;2023-07-16T02:04:06;6.20;;;1.65;;
53056;SDS011;38940;50.096;4.012;2023-07-16T02:06:32;6.97;;;1.70;;
53056;SDS011;38940;50.096;4.012;2023-07-16T02:08:58;5.70;;;1.75;;
53056;SDS011;38940;50.096;4.012;2023-07-16T02:11:24;6.80;;;1.67;;
53056;SDS011;38940;50.096;4.012;2023-07-16T02:13:50;7.18;;;1.80;;
53056;SDS011;38940;50.096;4.012;2023-07-16T02:16:16;11.33;;;2.10;;
53056;SDS011;38940;50.096;4.012;2023-07-16T02:18:42;8.43;;;1.90;;
53056;SDS011;38940;50.096;4.012;2023-07-16T02:21:08;11.70;;;2.38;;
53056;SDS011;38940;50.096;4.012;2023-07-16T02:23:34;5.43;;;1.75;;
53056;SDS011;38940;50.096;4.012;2023-07-16T02:26:00;6.30;;;1.92;;
53056;SDS011;38940;50.096;4.012;2023-07-16T02:28:26;7.33;;;2.10;;
53056;SDS011;38940;50.096;4.012;2023-07-16T02:30:52;8.05;;;2.13;;
53056;SDS011;38940;50.096;4.012;2023-07-16T02:33:18;7.25;;;2.28;;
53056;SDS011;38940;50.096;4.012;2023-07-16T02:35:47;9.37;;;2.30;;
53056;SDS011;38940;50.096;4.012;2023-07-16T02:38:14;9.77;;;2.93;;
53056;SDS011;38940;50.096;4.012;2023-07-16T02:40:43;9.60;;;2.40;;
53056;SDS011;38940;50.096;4.012;2023-07-16T02:43:09;10.43;;;2.20;;
53056;SDS011;38940;50.096;4.012;2023-07-16T02:45:35;5.78;;;2.10;;
53056;SDS011;38940;50.096;4.012;2023-07-16T02:48:01;5.80;;;2.10;;
53056;SDS011;38940;50.096;4.012;2023-07-16T02:50:27;8.95;;;2.50;;
53056;SDS011;38940;50.096;4.012;2023-07-16T02:52:53;8.85;;;2.50;;
53056;SDS011;38940;50.096;4.012;2023-07-16T02:55:19;6.97;;;2.43;;
53056;SDS011;38940;50.096;4.012;2023-07-16T02:57:45;11.68;;;2.50;;
53056;SDS011;38940;50.096;4.012;2023-07-16T03:00:11;8.70;;;2.38;;
53056;SDS011;38940;50.096;4.012;2023-07-16T03:02:37;8.45;;;2.60;;
53056;SDS011;38940;50.096;4.012;2023-07-16T03:05:04;9.23;;;2.80;;
53056;SDS011;38940;50.096;4.012;2023-07-16T03:07:30;8.90;;;2.60;;
53056;SDS011;38940;50.096;4.012;2023-07-16T03:09:56;8.40;;;2.67;;
53056;SDS011;38940;50.096;4.012;2023-07-16T03:12:21;13.23;;;2.72;;
53056;SDS011;38940;50.096;4.012;2023-07-16T03:14:47;8.03;;;2.50;;
53056;SDS011;38940;50.096;4.012;2023-07-16T03:17:15;10.02;;;2.70;;
53056;SDS011;38940;50.096;4.012;2023-07-16T03:19:41;7.70;;;2.50;;
53056;SDS011;38940;50.096;4.012;2023-07-16T03:22:07;8.43;;;2.30;;
53056;SDS011;38940;50.096;4.012;2023-07-16T03:24:33;11.30;;;2.45;;
53056;SDS011;38940;50.096;4.012;2023-07-16T03:26:59;9.70;;;2.63;;
53056;SDS011;38940;50.096;4.012;2023-07-16T03:29:25;10.60;;;2.50;;
53056;SDS011;38940;50.096;4.012;2023-07-16T03:31:51;12.20;;;2.53;;
53056;SDS011;38940;50.096;4.012;2023-07-16T03:34:17;11.35;;;2.58;;
53056;SDS011;38940;50.096;4.012;2023-07-16T03:36:43;7.80;;;2.75;;
53056;SDS011;38940;50.096;4.012;2023-07-16T03:39:09;10.00;;;2.50;;
53056;SDS011;38940;50.096;4.012;2023-07-16T03:41:35;8.52;;;2.60;;
53056;SDS011;38940;50.096;4.012;2023-07-16T03:44:01;8.07;;;2.70;;
53056;SDS011;38940;50.096;4.012;2023-07-16T03:46:27;8.13;;;2.47;;
53056;SDS011;38940;50.096;4.012;2023-07-16T03:48:53;9.32;;;2.70;;
53056;SDS011;38940;50.096;4.012;2023-07-16T03:51:19;8.57;;;2.42;;
53056;SDS011;38940;50.096;4.012;2023-07-16T03:53:45;9.45;;;2.88;;
53056;SDS011;38940;50.096;4.012;2023-07-16T03:56:11;10.13;;;2.80;;
53056;SDS011;38940;50.096;4.012;2023-07-16T03:58:37;9.07;;;3.00;;
53056;SDS011;38940;50.096;4.012;2023-07-16T04:01:03;7.40;;;2.80;;
53056;SDS011;38940;50.096;4.012;2023-07-16T04:03:29;10.75;;;3.28;;
53056;SDS011;38940;50.096;4.012;2023-07-16T04:06:02;11.38;;;3.25;;
53056;SDS011;38940;50.096;4.012;2023-07-16T04:08:28;10.80;;;3.20;;
53056;SDS011;38940;50.096;4.012;2023-07-16T04:10:54;8.30;;;3.03;;
53056;SDS011;38940;50.096;4.012;2023-07-16T04:13:20;6.65;;;2.70;;
53056;SDS011;38940;50.096;4.012;2023-07-16T04:15:46;7.47;;;3.00;;
53056;SDS011;38940;50.096;4.012;2023-07-16T04:18:12;12.30;;;3.20;;
53056;SDS011;38940;50.096;4.012;2023-07-16T04:20:38;9.40;;;3.30;;
53056;SDS011;38940;50.096;4.012;2023-07-16T04:23:04;7.93;;;2.80;;
53056;SDS011;38940;50.096;4.012;2023-07-16T04:25:30;7.95;;;3.35;;
53056;SDS011;38940;50.096;4.012;2023-07-16T04:27:56;10.83;;;2.90;;
53056;SDS011;38940;50.096;4.012;2023-07-16T04:30:22;10.93;;;2.97;;
53056;SDS011;38940;50.096;4.012;2023-07-16T04:32:48;12.10;;;2.97;;
53056;SDS011;38940;50.096;4.012;2023-07-16T04:35:14;10.55;;;2.88;;
53056;SDS011;38940;50.096;4.012;2023-07-16T04:37:40;9.10;;;3.00;;
53056;SDS011;38940;50.096;4.012;2023-07-16T04:40:07;8.32;;;3.10;;
53056;SDS011;38940;50.096;4.012;2023-07-16T04:42:34;12.25;;;3.28;;
53056;SDS011;38940;50.096;4.012;2023-07-16T04:45:00;13.97;;;3.03;;
53056;SDS011;38940;50.096;4.012;2023-07-16T04:47:26;9.05;;;3.05;;
53056;SDS011;38940;50.096;4.012;2023-07-16T04:49:52;11.13;;;3.50;;
53056;SDS011;38940;50.096;4.012;2023-07-16T04:52:18;9.05;;;3.03;;
53056;SDS011;38940;50.096;4.012;2023-07-16T04:54:44;10.52;;;2.88;;
53056;SDS011;38940;50.096;4.012;2023-07-16T04:57:10;8.15;;;3.00;;
53056;SDS011;38940;50.096;4.012;2023-07-16T04:59:36;10.98;;;2.90;;
53056;SDS011;38940;50.096;4.012;2023-07-16T05:02:04;7.47;;;2.90;;
53056;SDS011;38940;50.096;4.012;2023-07-16T05:04:31;8.48;;;3.05;;
53056;SDS011;38940;50.096;4.012;2023-07-16T05:06:57;8.50;;;3.10;;
53056;SDS011;38940;50.096;4.012;2023-07-16T05:09:23;12.35;;;3.50;;
53056;SDS011;38940;50.096;4.012;2023-07-16T05:11:49;11.67;;;3.50;;
53056;SDS011;38940;50.096;4.012;2023-07-16T05:14:14;12.27;;;3.05;;
53056;SDS011;38940;50.096;4.012;2023-07-16T05:16:40;11.10;;;3.30;;
53056;SDS011;38940;50.096;4.012;2023-07-16T05:19:06;14.70;;;3.27;;
53056;SDS011;38940;50.096;4.012;2023-07-16T05:21:32;16.90;;;3.30;;
53056;SDS011;38940;50.096;4.012;2023-07-16T05:23:58;11.40;;;3.47;;
53056;SDS011;38940;50.096;4.012;2023-07-16T05:26:24;13.38;;;3.35;;
53056;SDS011;38940;50.096;4.012;2023-07-16T05:28:50;11.25;;;3.53;;
53056;SDS011;38940;50.096;4.012;2023-07-16T05:31:16;10.13;;;3.28;;
53056;SDS011;38940;50.096;4.012;2023-07-16T05:33:42;10.90;;;3.50;;
53056;SDS011;38940;50.096;4.012;2023-07-16T05:36:08;19.80;;;3.60;;
53056;SDS011;38940;50.096;4.012;2023-07-16T05:38:34;10.35;;;3.58;;
53056;SDS011;38940;50.096;4.012;2023-07-16T05:41:01;12.98;;;3.70;;
53056;SDS011;38940;50.096;4.012;2023-07-16T05:43:27;9.75;;;3.60;;
53056;SDS011;38940;50.096;4.012;2023-07-16T05:45:53;9.70;;;3.60;;
53056;SDS011;38940;50.096;4.012;2023-07-16T05:48:20;12.23;;;3.60;;
53056;SDS011;38940;50.096;4.012;2023-07-16T05:50:46;7.93;;;3.47;;
53056;SDS011;38940;50.096;4.012;2023-07-16T05:53:12;12.00;;;3.70;;
53056;SDS011;38940;50.096;4.012;2023-07-16T05:55:40;11.07;;;3.63;;
53056;SDS011;38940;50.096;4.012;2023-07-16T05:58:07;14.35;;;3.72;;
53056;SDS011;38940;50.096;4.012;2023-07-16T06:00:33;9.90;;;3.50;;
53056;SDS011;38940;50.096;4.012;2023-07-16T06:02:59;13.80;;;3.90;;
53056;SDS011;38940;50.096;4.012;2023-07-16T06:05:26;13.60;;;3.88;;
53056;SDS011;38940;50.096;4.012;2023-07-16T06:07:56;13.45;;;4.10;;
53056;SDS011;38940;50.096;4.012;2023-07-16T06:10:22;10.75;;;3.75;;
53056;SDS011;38940;50.096;4.012;2023-07-16T06:12:47;11.45;;;3.72;;
53056;SDS011;38940;50.096;4.012;2023-07-16T06:15:13;10.60;;;3.92;;
53056;SDS011;38940;50.096;4.012;2023-07-16T06:17:39;17.13;;;3.97;;
53056;SDS011;38940;50.096;4.012;2023-07-16T06:20:06;12.73;;;3.95;;
53056;SDS011;38940;50.096;4.012;2023-07-16T06:22:32;14.00;;;4.20;;
53056;SDS011;38940;50.096;4.012;2023-07-16T06:24:58;11.77;;;4.03;;
53056;SDS011;38940;50.096;4.012;2023-07-16T06:27:24;17.75;;;4.07;;
53056;SDS011;38940;50.096;4.012;2023-07-16T06:29:50;12.00;;;3.80;;
53056;SDS011;38940;50.096;4.012;2023-07-16T06:32:16;12.30;;;3.97;;
53056;SDS011;38940;50.096;4.012;2023-07-16T06:34:42;12.70;;;3.33;;
53056;SDS011;38940;50.096;4.012;2023-07-16T06:37:08;15.05;;;4.60;;
53056;SDS011;38940;50.096;4.012;2023-07-16T06:39:34;15.90;;;4.23;;
53056;SDS011;38940;50.096;4.012;2023-07-16T06:42:01;11.02;;;4.10;;
53056;SDS011;38940;50.096;4.012;2023-07-16T06:44:27;16.30;;;4.10;;
53056;SDS011;38940;50.096;4.012;2023-07-16T06:46:53;14.43;;;4.00;;
53056;SDS011;38940;50.096;4.012;2023-07-16T06:49:19;10.25;;;4.15;;
53056;SDS011;38940;50.096;4.012;2023-07-16T06:51:45;12.45;;;4.55;;
53056;SDS011;38940;50.096;4.012;2023-07-16T06:54:11;14.18;;;4.45;;
53056;SDS011;38940;50.096;4.012;2023-07-16T06:56:37;15.60;;;3.83;;
53056;SDS011;38940;50.096;4.012;2023-07-16T06:59:03;15.35;;;4.30;;
53056;SDS011;38940;50.096;4.012;2023-07-16T07:01:29;13.18;;;4.32;;
53056;SDS011;38940;50.096;4.012;2023-07-16T07:03:55;15.10;;;4.47;;
53056;SDS011;38940;50.096;4.012;2023-07-16T07:06:21;14.85;;;4.22;;
53056;SDS011;38940;50.096;4.012;2023-07-16T07:08:47;12.10;;;4.40;;
53056;SDS011;38940;50.096;4.012;2023-07-16T07:11:13;12.10;;;4.38;;
53056;SDS011;38940;50.096;4.012;2023-07-16T07:13:39;14.60;;;4.85;;
53056;SDS011;38940;50.096;4.012;2023-07-16T07:16:05;13.50;;;4.32;;
53056;SDS011;38940;50.096;4.012;2023-07-16T07:18:31;12.25;;;4.60;;
53056;SDS011;38940;50.096;4.012;2023-07-16T07:20:57;12.35;;;4.22;;
53056;SDS011;38940;50.096;4.012;2023-07-16T07:23:23;15.83;;;4.70;;
53056;SDS011;38940;50.096;4.012;2023-07-16T07:25:49;13.05;;;4.40;;
53056;SDS011;38940;50.096;4.012;2023-07-16T07:28:19;15.82;;;5.00;;
53056;SDS011;38940;50.096;4.012;2023-07-16T07:30:45;10.87;;;4.30;;
53056;SDS011;38940;50.096;4.012;2023-07-16T07:33:11;10.67;;;4.30;;
53056;SDS011;38940;50.096;4.012;2023-07-16T07:35:38;13.57;;;4.72;;
53056;SDS011;38940;50.096;4.012;2023-07-16T07:38:04;15.00;;;4.80;;
53056;SDS011;38940;50.096;4.012;2023-07-16T07:40:30;14.77;;;4.80;;
53056;SDS011;38940;50.096;4.012;2023-07-16T07:42:56;14.98;;;4.50;;
53056;SDS011;38940;50.096;4.012;2023-07-16T07:45:22;12.95;;;4.50;;
53056;SDS011;38940;50.096;4.012;2023-07-16T07:47:48;17.30;;;4.82;;
53056;SDS011;38940;50.096;4.012;2023-07-16T07:50:14;11.05;;;4.25;;
53056;SDS011;38940;50.096;4.012;2023-07-16T07:52:41;12.52;;;4.38;;
53056;SDS011;38940;50.096;4.012;2023-07-16T07:55:07;13.35;;;4.15;;
53056;SDS011;38940;50.096;4.012;2023-07-16T07:57:33;14.60;;;4.30;;
53056;SDS011;38940;50.096;4.012;2023-07-16T07:59:59;14.38;;;4.20;;
53056;SDS011;38940;50.096;4.012;2023-07-16T08:02:25;10.93;;;4.50;;
53056;SDS011;38940;50.096;4.012;2023-07-16T08:04:51;11.93;;;3.97;;
53056;SDS011;38940;50.096;4.012;2023-07-16T08:07:18;14.48;;;4.50;;
53056;SDS011;38940;50.096;4.012;2023-07-16T08:09:43;14.30;;;4.20;;
53056;SDS011;38940;50.096;4.012;2023-07-16T08:12:10;16.38;;;4.25;;
53056;SDS011;38940;50.096;4.012;2023-07-16T08:14:36;12.40;;;4.00;;
53056;SDS011;38940;50.096;4.012;2023-07-16T08:17:02;11.75;;;3.75;;
53056;SDS011;38940;50.096;4.012;2023-07-16T08:19:28;13.20;;;4.15;;
53056;SDS011;38940;50.096;4.012;2023-07-16T08:21:54;14.57;;;4.13;;
53056;SDS011;38940;50.096;4.012;2023-07-16T08:24:20;9.75;;;4.00;;
53056;SDS011;38940;50.096;4.012;2023-07-16T08:26:46;9.30;;;3.80;;
53056;SDS011;38940;50.096;4.012;2023-07-16T08:29:12;10.52;;;4.25;;
53056;SDS011;38940;50.096;4.012;2023-07-16T08:31:38;13.55;;;3.83;;
53056;SDS011;38940;50.096;4.012;2023-07-16T08:34:05;12.38;;;3.80;;
53056;SDS011;38940;50.096;4.012;2023-07-16T08:36:32;11.55;;;3.92;;
53056;SDS011;38940;50.096;4.012;2023-07-16T08:38:58;12.53;;;4.03;;
53056;SDS011;38940;50.096;4.012;2023-07-16T08:41:24;10.90;;;4.03;;
53056;SDS011;38940;50.096;4.012;2023-07-16T08:43:51;9.43;;;3.85;;
53056;SDS011;38940;50.096;4.012;2023-07-16T08:46:17;11.38;;;3.55;;
53056;SDS011;38940;50.096;4.012;2023-07-16T08:48:43;8.60;;;3.30;;
53056;SDS011;38940;50.096;4.012;2023-07-16T08:51:10;12.02;;;3.92;;
53056;SDS011;38940;50.096;4.012;2023-07-16T08:53:39;10.23;;;3.50;;
53056;SDS011;38940;50.096;4.012;2023-07-16T08:56:05;13.85;;;3.97;;
53056;SDS011;38940;50.096;4.012;2023-07-16T08:58:31;12.38;;;3.60;;
53056;SDS011;38940;50.096;4.012;2023-07-16T09:00:58;13.95;;;3.97;;
53056;SDS011;38940;50.096;4.012;2023-07-16T09:03:25;9.82;;;3.58;;
53056;SDS011;38940;50.096;4.012;2023-07-16T09:05:51;13.23;;;3.63;;
53056;SDS011;38940;50.096;4.012;2023-07-16T09:08:17;10.53;;;3.60;;
53056;SDS011;38940;50.096;4.012;2023-07-16T09:10:43;12.25;;;3.63;;
53056;SDS011;38940;50.096;4.012;2023-07-16T09:13:09;9.25;;;3.72;;
53056;SDS011;38940;50.096;4.012;2023-07-16T09:15:35;9.63;;;3.67;;
53056;SDS011;38940;50.096;4.012;2023-07-16T09:18:03;10.77;;;3.78;;
53056;SDS011;38940;50.096;4.012;2023-07-16T09:20:29;10.43;;;3.70;;
53056;SDS011;38940;50.096;4.012;2023-07-16T09:22:56;10.10;;;3.60;;
53056;SDS011;38940;50.096;4.012;2023-07-16T09:25:26;10.52;;;3.50;;
53056;SDS011;38940;50.096;4.012;2023-07-16T09:27:52;11.00;;;3.40;;
53056;SDS011;38940;50.096;4.012;2023-07-16T09:30:18;10.60;;;3.50;;
53056;SDS011;38940;50.096;4.012;2023-07-16T09:32:44;8.20;;;3.47;;
53056;SDS011;38940;50.096;4.012;2023-07-16T09:35:12;10.48;;;3.45;;
53056;SDS011;38940;50.096;4.012;2023-07-16T09:37:38;9.50;;;3.72;;
53056;SDS011;38940;50.096;4.012;2023-07-16T09:40:05;16.73;;;4.20;;
53056;SDS011;38940;50.096;4.012;2023-07-16T09:42:34;14.27;;;3.60;;
53056;SDS011;38940;50.096;4.012;2023-07-16T09:45:02;10.25;;;3.40;;
53056;SDS011;38940;50.096;4.012;2023-07-16T09:47:28;10.10;;;3.67;;
53056;SDS011;38940;50.096;4.012;2023-07-16T09:49:54;8.68;;;3.30;;
53056;SDS011;38940;50.096;4.012;2023-07-16T09:52:20;12.82;;;3.20;;
53056;SDS011;38940;50.096;4.012;2023-07-16T09:54:46;11.07;;;3.53;;
53056;SDS011;38940;50.096;4.012;2023-07-16T09:57:13;10.77;;;3.42;;
53056;SDS011;38940;50.096;4.012;2023-07-16T09:59:40;8.03;;;3.33;;
53056;SDS011;38940;50.096;4.012;2023-07-16T10:02:06;10.50;;;3.78;;
53056;SDS011;38940;50.096;4.012;2023-07-16T10:04:39;9.73;;;3.35;;
53056;SDS011;38940;50.096;4.012;2023-07-16T10:07:05;10.20;;;3.37;;
53056;SDS011;38940;50.096;4.012;2023-07-16T10:09:40;9.82;;;3.30;;
53056;SDS011;38940;50.096;4.012;2023-07-16T10:14:43;10.87;;;3.27;;
53056;SDS011;38940;50.096;4.012;2023-07-16T10:17:29;9.93;;;3.50;;
53056;SDS011;38940;50.096;4.012;2023-07-16T10:19:56;10.48;;;3.05;;
53056;SDS011;38940;50.096;4.012;2023-07-16T10:22:35;8.65;;;3.22;;
53056;SDS011;38940;50.096;4.012;2023-07-16T10:25:02;9.65;;;3.15;;
53056;SDS011;38940;50.096;4.012;2023-07-16T10:27:32;7.45;;;2.90;;
53056;SDS011;38940;50.096;4.012;2023-07-16T10:30:00;9.57;;;3.00;;
53056;SDS011;38940;50.096;4.012;2023-07-16T10:32:30;6.37;;;2.93;;
53056;SDS011;38940;50.096;4.012;2023-07-16T10:34:56;10.52;;;3.10;;
53056;SDS011;38940;50.096;4.012;2023-07-16T10:37:22;8.18;;;2.75;;
53056;SDS011;38940;50.096;4.012;2023-07-16T10:39:48;10.60;;;3.60;;
53056;SDS011;38940;50.096;4.012;2023-07-16T10:42:18;9.48;;;3.10;;
53056;SDS011;38940;50.096;4.012;2023-07-16T10:44:44;9.43;;;2.80;;
53056;SDS011;38940;50.096;4.012;2023-07-16T10:47:24;9.18;;;2.70;;
53056;SDS011;38940;50.096;4.012;2023-07-16T10:49:50;7.18;;;2.80;;
53056;SDS011;38940;50.096;4.012;2023-07-16T10:52:20;5.90;;;3.03;;
53056;SDS011;38940;50.096;4.012;2023-07-16T10:54:46;10.20;;;2.87;;
53056;SDS011;38940;50.096;4.012;2023-07-16T10:57:14;6.63;;;2.80;;
53056;SDS011;38940;50.096;4.012;2023-07-16T10:59:41;11.25;;;3.00;;
53056;SDS011;38940;50.096;4.012;2023-07-16T11:02:12;6.68;;;2.65;;
53056;SDS011;38940;50.096;4.012;2023-07-16T11:04:39;9.55;;;2.70;;
53056;SDS011;38940;50.096;4.012;2023-07-16T11:07:08;6.90;;;2.90;;
53056;SDS011;38940;50.096;4.012;2023-07-16T11:09:40;7.80;;;2.65;;
53056;SDS011;38940;50.096;4.012;2023-07-16T11:12:11;9.30;;;2.83;;
53056;SDS011;38940;50.096;4.012;2023-07-16T11:14:38;6.18;;;2.53;;
53056;SDS011;38940;50.096;4.012;2023-07-16T11:17:05;7.22;;;2.83;;
53056;SDS011;38940;50.096;4.012;2023-07-16T11:19:35;7.05;;;2.90;;
53056;SDS011;38940;50.096;4.012;2023-07-16T11:22:02;6.78;;;2.67;;
53056;SDS011;38940;50.096;4.012;2023-07-16T11:24:28;9.20;;;3.05;;
53056;SDS011;38940;50.096;4.012;2023-07-16T11:27:01;9.60;;;3.03;;
53056;SDS011;38940;50.096;4.012;2023-07-16T11:29:33;9.32;;;3.03;;
53056;SDS011;38940;50.096;4.012;2023-07-16T11:31:59;8.43;;;3.00;;
53056;SDS011;38940;50.096;4.012;2023-07-16T11:34:25;8.00;;;2.97;;
53056;SDS011;38940;50.096;4.012;2023-07-16T11:36:51;10.25;;;3.28;;
53056;SDS011;38940;50.096;4.012;2023-07-16T11:39:17;8.13;;;2.90;;
53056;SDS011;38940;50.096;4.012;2023-07-16T11:41:53;8.25;;;3.05;;
53056;SDS011;38940;50.096;4.012;2023-07-16T11:44:19;7.82;;;2.78;;
53056;SDS011;38940;50.096;4.012;2023-07-16T11:46:46;5.97;;;2.70;;
53056;SDS011;38940;50.096;4.012;2023-07-16T11:49:13;7.88;;;2.63;;
53056;SDS011;38940;50.096;4.012;2023-07-16T11:51:39;5.90;;;2.70;;
53056;SDS011;38940;50.096;4.012;2023-07-16T11:54:05;6.77;;;2.80;;
53056;SDS011;38940;50.096;4.012;2023-07-16T11:56:31;7.20;;;3.00;;
53056;SDS011;38940;50.096;4.012;2023-07-16T11:58:57;6.22;;;2.72;;
53056;SDS011;38940;50.096;4.012;2023-07-16T12:01:23;4.82;;;2.45;;
53056;SDS011;38940;50.096;4.012;2023-07-16T12:03:49;9.98;;;2.97;;
53056;SDS011;38940;50.096;4.012;2023-07-16T12:06:15;5.63;;;2.35;;
53056;SDS011;38940;50.096;4.012;2023-07-16T12:08:41;11.68;;;3.88;;
53056;SDS011;38940;50.096;4.012;2023-07-16T12:11:07;6.35;;;2.63;;
53056;SDS011;38940;50.096;4.012;2023-07-16T12:13:33;6.72;;;2.80;;
53056;SDS011;38940;50.096;4.012;2023-07-16T12:15:59;6.28;;;2.63;;
53056;SDS011;38940;50.096;4.012;2023-07-16T12:18:25;10.40;;;2.58;;
53056;SDS011;38940;50.096;4.012;2023-07-16T12:20:51;7.95;;;2.90;;
53056;SDS011;38940;50.096;4.012;2023-07-16T12:23:17;10.68;;;2.85;;
53056;SDS011;38940;50.096;4.012;2023-07-16T12:25:43;10.35;;;2.78;;
53056;SDS011;38940;50.096;4.012;2023-07-16T12:28:10;7.85;;;2.80;;
53056;SDS011;38940;50.096;4.012;2023-07-16T12:30:37;6.28;;;2.50;;
53056;SDS011;38940;50.096;4.012;2023-07-16T12:33:03;5.93;;;2.45;;
53056;SDS011;38940;50.096;4.012;2023-07-16T12:35:29;9.80;;;2.83;;
53056;SDS011;38940;50.096;4.012;2023-07-16T12:37:55;6.85;;;2.53;;
53056;SDS011;38940;50.096;4.012;2023-07-16T12:40:23;9.02;;;2.90;;
53056;SDS011;38940;50.096;4.012;2023-07-16T12:42:49;7.88;;;3.00;;
53056;SDS011;38940;50.096;4.012;2023-07-16T12:45:15;20.27;;;9.27;;
53056;SDS011;38940;50.096;4.012;2023-07-16T12:47:41;10.00;;;4.80;;
53056;SDS011;38940;50.096;4.012;2023-07-16T12:50:07;11.55;;;3.60;;
53056;SDS011;38940;50.096;4.012;2023-07-16T12:52:33;7.97;;;3.47;;
53056;SDS011;38940;50.096;4.012;2023-07-16T12:54:59;5.70;;;2.70;;
53056;SDS011;38940;50.096;4.012;2023-07-16T12:57:25;7.05;;;2.80;;
53056;SDS011;38940;50.096;4.012;2023-07-16T12:59:51;7.78;;;2.92;;
53056;SDS011;38940;50.096;4.012;2023-07-16T13:02:17;8.65;;;2.80;;
53056;SDS011;38940;50.096;4.012;2023-07-16T13:04:43;10.47;;;2.90;;
53056;SDS011;38940;50.096;4.012;2023-07-16T13:07:09;5.22;;;2.55;;
53056;SDS011;38940;50.096;4.012;2023-07-16T13:09:35;7.72;;;2.65;;
53056;SDS011;38940;50.096;4.012;2023-07-16T13:12:01;8.68;;;2.58;;
53056;SDS011;38940;50.096;4.012;2023-07-16T13:14:28;6.65;;;2.67;;
53056;SDS011;38940;50.096;4.012;2023-07-16T13:16:54;8.00;;;2.70;;
53056;SDS011;38940;50.096;4.012;2023-07-16T13:19:19;6.45;;;2.70;;
53056;SDS011;38940;50.096;4.012;2023-07-16T13:21:45;6.50;;;2.70;;
53056;SDS011;38940;50.096;4.012;2023-07-16T13:24:11;9.07;;;3.30;;
53056;SDS011;38940;50.096;4.012;2023-07-16T13:26:37;6.57;;;2.70;;
53056;SDS011;38940;50.096;4.012;2023-07-16T13:29:04;9.23;;;2.80;;
53056;SDS011;38940;50.096;4.012;2023-07-16T13:31:30;7.22;;;2.75;;
53056;SDS011;38940;50.096;4.012;2023-07-16T13:33:56;7.75;;;2.70;;
53056;SDS011;38940;50.096;4.012;2023-07-16T13:36:22;16.63;;;2.40;;
53056;SDS011;38940;50.096;4.012;2023-07-16T13:38:48;9.80;;;2.88;;
53056;SDS011;38940;50.096;4.012;2023-07-16T13:41:14;6.97;;;2.70;;
53056;SDS011;38940;50.096;4.012;2023-07-16T13:43:40;8.20;;;2.55;;
53056;SDS011;38940;50.096;4.012;2023-07-16T13:46:06;7.82;;;2.50;;
53056;SDS011;38940;50.096;4.012;2023-07-16T13:48:32;8.32;;;2.72;;
53056;SDS011;38940;50.096;4.012;2023-07-16T13:50:58;5.60;;;2.50;;
53056;SDS011;38940;50.096;4.012;2023-07-16T13:53:24;5.38;;;2.58;;
53056;SDS011;38940;50.096;4.012;2023-07-16T13:55:50;6.15;;;2.60;;
53056;SDS011;38940;50.096;4.012;2023-07-16T13:58:16;5.65;;;2.42;;
53056;SDS011;38940;50.096;4.012;2023-07-16T14:00:42;8.68;;;2.70;;
53056;SDS011;38940;50.096;4.012;2023-07-16T14:03:08;7.38;;;2.63;;
53056;SDS011;38940;50.096;4.012;2023-07-16T14:05:34;7.78;;;2.55;;
53056;SDS011;38940;50.096;4.012;2023-07-16T14:08:03;9.00;;;2.70;;
53056;SDS011;38940;50.096;4.012;2023-07-16T14:10:29;6.47;;;3.00;;
53056;SDS011;38940;50.096;4.012;2023-07-16T14:12:55;8.20;;;3.03;;
53056;SDS011;38940;50.096;4.012;2023-07-16T14:15:21;7.93;;;2.75;;
53056;SDS011;38940;50.096;4.012;2023-07-16T14:17:49;7.63;;;2.92;;
53056;SDS011;38940;50.096;4.012;2023-07-16T14:23:14;8.35;;;3.03;;
53056;SDS011;38940;50.096;4.012;2023-07-16T14:25:49;10.60;;;3.03;;
53056;SDS011;38940;50.096;4.012;2023-07-16T14:28:30;10.00;;;2.85;;
53056;SDS011;38940;50.096;4.012;2023-07-16T14:31:15;10.55;;;3.22;;
53056;SDS011;38940;50.096;4.012;2023-07-16T14:33:41;10.18;;;3.10;;
53056;SDS011;38940;50.096;4.012;2023-07-16T14:36:07;5.22;;;2.65;;
53056;SDS011;38940;50.096;4.012;2023-07-16T14:38:33;8.90;;;2.80;;
53056;SDS011;38940;50.096;4.012;2023-07-16T14:40:59;8.83;;;2.93;;
53056;SDS011;38940;50.096;4.012;2023-07-16T14:43:25;7.40;;;2.63;;
53056;SDS011;38940;50.096;4.012;2023-07-16T14:45:51;8.68;;;3.05;;
53056;SDS011;38940;50.096;4.012;2023-07-16T14:48:17;9.20;;;2.70;;
53056;SDS011;38940;50.096;4.012;2023-07-16T14:50:43;6.75;;;2.88;;